Time;durP1;ratioP1;P1;durP2;ratioP2;P2;SDS_P1;SDS_P2;PMS_P1;PMS_P2;Temp;Humidity;BMP_temperature;BMP_pressure;BME280_temperature;BME280_humidity;BME280_pressure;Samples;Min_cycle;Max_cycle;Signal;HPM_P1;HPM_P2
2022/11/13 00:03:12;;;;;;;54.72;32.47;;;;;;;4.25;100.00;101204.03;10500719;28;20048;-69
2022/11/13 00:08:13;;;;;;;52.60;32.30;;;;;;;4.78;100.00;101273.09;10499638;28;20051;-69
2022/11/13 00:13:14;;;;;;;47.33;29.83;;;;;;;4.80;100.00;101284.38;10511822;28;20040;-69
2022/11/13 00:18:15;;;;;;;51.22;30.45;;;;;;;4.68;100.00;101274.72;10499407;28;20123;-69
2022/11/13 00:23:15;;;;;;;50.28;30.25;;;;;;;4.64;100.00;101241.66;10499332;28;20046;-69
2022/11/13 00:28:16;;;;;;;49.72;29.80;;;;;;;4.59;100.00;101247.25;10499863;28;20508;-70
2022/11/13 00:33:17;;;;;;;44.38;27.42;;;;;;;4.54;100.00;101220.41;10499583;28;20044;-69
2022/11/13 00:38:17;;;;;;;46.38;27.67;;;;;;;4.55;100.00;101215.03;10499740;28;20091;-69
2022/11/13 00:43:18;;;;;;;46.80;27.55;;;;;;;4.67;100.00;101230.94;10498503;28;20059;-69
2022/11/13 00:48:19;;;;;;;42.28;26.75;;;;;;;3.66;100.00;101050.31;10498256;28;20051;-69
2022/11/13 00:53:21;;;;;;;38.95;24.38;;;;;;;4.48;100.00;101165.56;10498479;28;20083;-69
2022/11/13 00:58:21;;;;;;;37.22;23.48;;;;;;;3.78;100.00;101037.28;10498847;28;20489;-69
2022/11/13 01:03:22;;;;;;;42.17;23.30;;;;;;;4.29;100.00;101105.53;10498363;28;20078;-69
2022/11/13 01:08:23;;;;;;;36.60;23.67;;;;;;;4.80;100.00;101177.28;10497840;28;20044;-69
2022/11/13 01:13:24;;;;;;;38.33;23.27;;;;;;;4.88;100.00;101189.91;10497923;28;20117;-69
2022/11/13 01:18:24;;;;;;;35.88;21.15;;;;;;;5.00;100.00;101201.34;10497619;28;20070;-69
2022/11/13 01:23:25;;;;;;;33.45;20.48;;;;;;;5.05;100.00;101191.31;10497007;28;20052;-69
2022/11/13 01:28:26;;;;;;;31.48;20.40;;;;;;;4.77;100.00;101126.66;10497508;28;20070;-69
2022/11/13 01:33:27;;;;;;;27.17;17.38;;;;;;;5.19;100.00;101185.88;10496662;28;20201;-69
2022/11/13 01:38:29;;;;;;;30.80;19.67;;;;;;;5.10;100.00;101169.91;10508303;28;20059;-69
2022/11/13 01:43:35;;;;;;;29.48;18.95;;;;;;;5.12;100.00;101174.13;10496129;28;20397;-69
2022/11/13 01:48:46;;;;;;;32.88;18.77;;;;;;;5.08;100.00;101156.84;10496634;28;20044;-69
2022/11/13 01:53:47;;;;;;;33.30;19.73;;;;;;;4.93;100.00;101126.38;10495885;28;20040;-69
2022/11/13 01:58:55;;;;;;;32.90;18.58;;;;;;;4.96;100.00;101124.34;10496495;28;20079;-69
2022/11/13 02:03:56;;;;;;;36.47;19.02;;;;;;;5.12;100.00;101142.50;10497348;28;20551;-69
2022/11/13 02:08:57;;;;;;;30.70;18.15;;;;;;;5.03;100.00;101117.69;10495529;28;20131;-69
2022/11/13 02:13:59;;;;;;;32.58;18.48;;;;;;;5.11;100.00;101095.22;10495607;28;20036;-69
2022/11/13 02:19:05;;;;;;;28.60;18.52;;;;;;;5.10;100.00;101049.59;10496411;28;20036;-69
2022/11/13 02:24:33;;;;;;;25.88;16.40;;;;;;;5.70;100.00;101119.69;10495901;28;20076;-69
2022/11/13 02:29:34;;;;;;;25.95;16.48;;;;;;;5.81;100.00;101108.31;10496982;28;20562;-69
2022/11/13 02:34:34;;;;;;;30.73;16.25;;;;;;;5.36;100.00;101016.03;10510796;28;20077;-70
2022/11/13 02:39:35;;;;;;;27.50;15.43;;;;;;;5.89;100.00;101078.69;10514054;27;20420;-69
2022/11/13 02:44:36;;;;;;;27.30;15.30;;;;;;;5.93;100.00;101088.09;10503900;28;20036;-69
2022/11/13 02:49:36;;;;;;;27.38;16.45;;;;;;;5.34;100.00;100990.75;10514849;28;20051;-69
2022/11/13 02:54:37;;;;;;;26.58;16.75;;;;;;;5.91;100.00;101098.72;10545333;28;20407;-69
2022/11/13 02:59:38;;;;;;;29.42;18.20;;;;;;;5.92;100.00;101089.88;10545025;28;20048;-69
2022/11/13 03:04:39;;;;;;;33.75;18.50;;;;;;;5.92;100.00;101066.13;10544340;28;20475;-69
2022/11/13 03:09:40;;;;;;;29.30;17.65;;;;;;;5.94;100.00;101068.69;10522628;28;20047;-69
2022/11/13 03:14:41;;;;;;;28.15;17.80;;;;;;;5.88;100.00;101056.78;10502222;28;20048;-68
2022/11/13 03:19:41;;;;;;;28.20;17.67;;;;;;;5.97;100.00;101064.97;10501684;28;20458;-69
2022/11/13 03:24:42;;;;;;;31.48;18.25;;;;;;;5.55;100.00;100978.53;10502297;28;20094;-69
2022/11/13 03:29:43;;;;;;;25.98;18.02;;;;;;;6.09;100.00;101066.63;10502148;28;20476;-69
2022/11/13 03:34:44;;;;;;;31.10;18.65;;;;;;;5.61;100.00;100961.41;10502165;28;20037;-69
2022/11/13 03:39:44;;;;;;;28.00;16.90;;;;;;;6.15;100.00;101043.22;10500077;28;20058;-69
2022/11/13 03:44:45;;;;;;;26.95;17.58;;;;;;;6.20;100.00;101042.88;10501540;28;20051;-69
2022/11/13 03:49:46;;;;;;;35.92;16.92;;;;;;;6.17;100.00;101040.50;10501386;28;20182;-69
2022/11/13 03:54:47;;;;;;;26.27;17.13;;;;;;;6.18;100.00;101035.06;10500443;28;20050;-69
2022/11/13 03:59:48;;;;;;;29.83;18.55;;;;;;;6.20;100.00;101039.41;10500562;28;20078;-69
2022/11/13 04:04:48;;;;;;;26.95;17.02;;;;;;;6.07;100.00;101010.50;10500622;28;20040;-69
2022/11/13 04:09:49;;;;;;;29.30;17.50;;;;;;;5.67;100.00;100950.38;10500485;28;20043;-69
2022/11/13 04:14:50;;;;;;;25.38;17.13;;;;;;;6.16;100.00;101009.78;10500420;28;20458;-69
2022/11/13 04:19:51;;;;;;;26.75;16.60;;;;;;;6.30;100.00;101030.63;10500245;28;20492;-70
2022/11/13 04:24:52;;;;;;;26.65;16.95;;;;;;;6.34;100.00;101037.34;10500936;28;20108;-69
2022/11/13 04:29:52;;;;;;;25.90;16.90;;;;;;;6.38;100.00;101038.75;10499829;28;20050;-69
2022/11/13 04:34:53;;;;;;;25.80;16.38;;;;;;;6.20;100.00;100989.28;10499522;28;20071;-69
2022/11/13 04:39:54;;;;;;;24.92;14.80;;;;;;;6.62;100.00;101027.19;10500186;28;20056;-69
2022/11/13 04:44:55;;;;;;;21.80;14.02;;;;;;;6.39;100.00;100960.44;10499399;28;20086;-69
2022/11/13 04:49:56;;;;;;;21.30;13.48;;;;;;;7.17;100.00;101046.34;10497031;28;20048;-69
2022/11/13 04:54:57;;;;;;;22.88;13.40;;;;;;;7.38;100.00;101049.00;10497696;28;20033;-69
2022/11/13 04:59:58;;;;;;;18.65;11.93;;;;;;;7.51;100.00;101027.66;10498707;28;20450;-70
2022/11/13 05:04:59;;;;;;;19.38;12.43;;;;;;;7.67;100.00;101027.19;10498617;28;20166;-69
2022/11/13 05:09:59;;;;;;;16.70;11.27;;;;;;;8.01;100.00;101056.81;10497518;28;20513;-69
2022/11/13 05:15:00;;;;;;;17.50;12.00;;;;;;;8.16;100.00;101051.97;10497901;28;20036;-69
2022/11/13 05:20:01;;;;;;;18.27;11.98;;;;;;;8.35;100.00;101048.56;10508202;28;20032;-69
2022/11/13 05:25:02;;;;;;;18.48;10.80;;;;;;;8.55;100.00;101057.41;10574825;28;20504;-69
2022/11/13 05:30:03;;;;;;;13.23;9.60;;;;;;;8.74;100.00;101053.94;10506281;28;20040;-68
2022/11/13 05:35:04;;;;;;;13.27;9.32;;;;;;;8.88;99.32;101042.91;10506705;28;20051;-67
2022/11/13 05:40:06;;;;;;;16.80;8.60;;;;;;;9.18;98.25;101035.78;10506065;28;20049;-68
2022/11/13 05:45:07;;;;;;;11.80;7.82;;;;;;;9.31;97.05;101028.38;10511946;28;20072;-68
2022/11/13 05:50:08;;;;;;;12.02;7.70;;;;;;;8.62;96.10;100876.63;10497001;28;20044;-67
2022/11/13 05:55:09;;;;;;;10.90;7.00;;;;;;;9.64;95.94;101004.97;10495341;28;20070;-69
2022/11/13 06:00:10;;;;;;;8.55;6.70;;;;;;;9.84;94.68;100990.59;10505186;28;20498;-68
2022/11/13 06:05:11;;;;;;;10.73;6.93;;;;;;;10.07;93.21;100996.38;10512986;28;20040;-67
2022/11/13 06:10:12;;;;;;;10.07;6.82;;;;;;;10.21;92.35;100997.69;10504175;28;20039;-67
2022/11/13 06:15:12;;;;;;;9.30;6.60;;;;;;;10.14;91.41;100954.97;10537712;28;20043;-68
2022/11/13 06:20:14;;;;;;;9.07;6.18;;;;;;;10.09;90.76;100945.78;10536939;28;20085;-68
2022/11/13 06:25:15;;;;;;;8.35;6.63;;;;;;;10.39;90.80;100966.69;10538222;28;20437;-68
2022/11/13 06:30:16;;;;;;;9.75;6.72;;;;;;;10.61;89.87;100962.72;10500889;28;20131;-67
2022/11/13 06:35:16;;;;;;;14.35;6.30;;;;;;;10.56;88.71;100926.97;10495207;28;20072;-67
2022/11/13 06:40:17;;;;;;;10.65;6.57;;;;;;;10.75;87.73;100942.75;10496000;28;20071;-69
2022/11/13 06:45:18;;;;;;;9.15;5.97;;;;;;;10.93;87.15;100945.38;10494716;28;20063;-67
2022/11/13 06:50:19;;;;;;;8.23;6.18;;;;;;;11.08;86.51;100935.84;10495092;28;20040;-68
2022/11/13 06:55:19;;;;;;;12.27;6.70;;;;;;;11.05;85.12;100908.75;10493424;28;20132;-69
2022/11/13 07:00:20;;;;;;;11.38;6.35;;;;;;;10.99;84.28;100859.69;10495113;28;20036;-67
2022/11/13 07:05:21;;;;;;;9.50;5.88;;;;;;;11.40;82.61;100924.56;10495044;28;20493;-67
2022/11/13 07:10:22;;;;;;;7.85;5.68;;;;;;;11.48;81.70;100926.41;10494805;28;20048;-68
2022/11/13 07:15:22;;;;;;;6.97;4.80;;;;;;;11.61;80.91;100912.69;10495918;28;20032;-67
2022/11/13 07:20:23;;;;;;;6.93;4.85;;;;;;;11.36;79.71;100845.22;10500655;28;20040;-69
2022/11/13 07:25:25;;;;;;;11.88;4.57;;;;;;;11.84;78.36;100894.25;10500981;28;20047;-66
2022/11/13 07:30:27;;;;;;;6.85;4.65;;;;;;;12.12;78.79;100905.53;10500778;28;20453;-68
2022/11/13 07:35:27;;;;;;;5.97;4.32;;;;;;;12.27;77.89;100898.53;10502089;28;20450;-68
2022/11/13 07:40:28;;;;;;;6.38;4.55;;;;;;;12.23;77.15;100869.72;10500791;28;20048;-68
2022/11/13 07:45:29;;;;;;;7.22;4.18;;;;;;;12.39;75.72;100858.25;10501535;28;20124;-69
2022/11/13 07:50:33;;;;;;;8.13;3.70;;;;;;;12.69;74.63;100880.72;10502124;28;20064;-69
2022/11/13 07:55:35;;;;;;;8.27;3.63;;;;;;;12.42;73.74;100800.13;10500129;28;20040;-69
2022/11/13 08:00:36;;;;;;;6.38;3.83;;;;;;;12.49;72.61;100768.28;10500570;28;20509;-68
2022/11/13 08:05:38;;;;;;;9.65;3.60;;;;;;;12.90;70.30;100834.84;10500715;28;20040;-67
2022/11/13 08:10:39;;;;;;;5.43;3.05;;;;;;;13.00;68.74;100803.47;10498488;28;20044;-67
2022/11/13 08:15:40;;;;;;;6.13;2.38;;;;;;;12.90;66.56;100763.69;10533940;28;20047;-67
2022/11/13 08:20:41;;;;;;;7.78;2.38;;;;;;;13.23;65.83;100788.38;10540884;28;20085;-67
2022/11/13 08:25:42;;;;;;;7.78;2.15;;;;;;;13.31;62.96;100768.84;10541084;28;20470;-67
2022/11/13 08:30:43;;;;;;;6.38;2.20;;;;;;;12.79;62.65;100687.56;10541183;28;20150;-67
2022/11/13 08:35:55;;;;;;;5.05;1.70;;;;;;;13.40;60.82;100790.97;10520059;28;20120;-67
2022/11/13 08:40:59;;;;;;;6.18;2.47;;;;;;;13.40;60.29;100777.63;10499910;28;20056;-67
2022/11/13 08:46:00;;;;;;;8.07;2.38;;;;;;;13.60;61.03;100781.50;10499544;28;20400;-69
2022/11/13 08:51:01;;;;;;;5.32;2.13;;;;;;;13.22;59.73;100685.34;10499541;28;20040;-68
2022/11/13 08:56:03;;;;;;;3.55;1.90;;;;;;;13.77;59.68;100770.72;10498751;28;20131;-68
2022/11/13 09:01:04;;;;;;;4.13;2.15;;;;;;;13.80;59.32;100746.34;10498505;28;20071;-68
2022/11/13 09:06:06;;;;;;;3.78;1.90;;;;;;;13.36;58.55;100662.41;10498109;28;20068;-67
2022/11/13 09:11:07;;;;;;;9.20;2.10;;;;;;;13.67;56.77;100715.72;10498138;28;20484;-67
2022/11/13 09:16:08;;;;;;;3.05;2.00;;;;;;;14.00;57.87;100747.50;10496148;28;20044;-68
2022/11/13 09:21:09;;;;;;;12.38;1.77;;;;;;;14.06;56.80;100745.91;10495760;28;20131;-68
2022/11/13 09:26:10;;;;;;;2.78;1.50;;;;;;;13.57;56.43;100629.72;10497131;28;20049;-67
2022/11/13 09:31:11;;;;;;;3.75;1.85;;;;;;;14.11;56.48;100698.13;10496857;28;20086;-69
2022/11/13 09:36:13;;;;;;;4.05;1.80;;;;;;;14.28;55.41;100680.91;10496953;28;20033;-67
2022/11/13 09:41:21;;;;;;;6.97;1.80;;;;;;;14.28;56.00;100680.09;10496793;28;20147;-68
2022/11/13 09:46:48;;;;;;;4.10;1.83;;;;;;;14.46;54.47;100693.09;10496805;28;20049;-66
2022/11/13 09:51:58;;;;;;;6.60;1.70;;;;;;;14.45;53.89;100676.22;10496594;28;20116;-68
2022/11/13 09:57:16;;;;;;;4.53;1.52;;;;;;;14.30;54.34;100616.63;10496709;28;20040;-68
2022/11/13 10:02:38;;;;;;;3.00;1.58;;;;;;;14.09;53.92;100559.41;10495870;28;20428;-68
2022/11/13 10:07:53;;;;;;;3.22;1.58;;;;;;;13.98;53.15;100537.69;10495567;28;20131;-68
2022/11/13 10:12:57;;;;;;;5.05;1.33;;;;;;;14.53;53.70;100611.97;10511589;28;20036;-68
2022/11/13 10:18:05;;;;;;;6.13;1.58;;;;;;;14.54;52.07;100621.69;10510505;28;20048;-67
2022/11/13 10:23:43;;;;;;;4.03;1.23;;;;;;;14.60;52.38;100620.94;10494649;28;20040;-67
2022/11/13 10:28:44;;;;;;;2.65;1.20;;;;;;;14.34;53.57;100583.97;10444472;28;20492;-67
2022/11/13 10:33:44;;;;;;;3.85;1.70;;;;;;;14.66;52.42;100630.06;10494829;28;20594;-67
2022/11/13 10:39:06;;;;;;;4.82;1.30;;;;;;;14.74;52.57;100639.78;10495189;28;20087;-68
2022/11/13 10:44:17;;;;;;;4.68;1.40;;;;;;;14.64;51.79;100618.72;10495405;28;20045;-68
2022/11/13 10:49:21;;;;;;;2.92;1.10;;;;;;;14.80;52.17;100645.22;10494761;28;20487;-69
2022/11/13 10:54:29;;;;;;;8.23;1.83;;;;;;;14.85;52.55;100644.66;10502721;28;20071;-69
2022/11/13 10:59:42;;;;;;;2.25;1.20;;;;;;;14.36;52.54;100557.06;10503319;28;20128;-68
2022/11/13 11:04:43;;;;;;;3.43;1.20;;;;;;;14.37;52.86;100572.09;10503168;28;20036;-69
2022/11/13 11:09:46;;;;;;;7.43;1.58;;;;;;;14.77;51.95;100610.81;10502778;28;20040;-68
2022/11/13 11:14:56;;;;;;;2.17;1.15;;;;;;;14.85;51.65;100631.28;10502709;28;20071;-68
2022/11/13 11:20:06;;;;;;;3.22;1.30;;;;;;;14.86;51.68;100616.06;10502209;28;20462;-70
2022/11/13 11:25:18;;;;;;;4.60;1.35;;;;;;;14.66;51.53;100592.63;10501823;28;20097;-69
2022/11/13 11:30:22;;;;;;;4.95;2.75;;;;;;;14.86;50.65;100624.91;10501030;28;20040;-69
2022/11/13 11:35:43;;;;;;;6.10;2.13;;;;;;;14.80;48.17;100631.00;10519797;28;20457;-66
2022/11/13 11:40:51;;;;;;;3.25;1.35;;;;;;;14.61;48.85;100617.22;10516778;28;20067;-68
2022/11/13 11:45:52;;;;;;;6.25;1.60;;;;;;;14.59;49.68;100623.78;10507658;28;20093;-67
2022/11/13 11:51:06;;;;;;;2.53;1.20;;;;;;;14.61;50.01;100638.63;10523703;28;20135;-71
2022/11/13 11:56:43;;;;;;;4.65;1.30;;;;;;;13.69;50.25;100489.44;10528427;28;20072;-69
2022/11/13 12:01:47;;;;;;;2.53;1.00;;;;;;;14.35;50.86;100627.56;10540270;28;20093;-70
2022/11/13 12:07:01;;;;;;;4.72;1.13;;;;;;;13.48;51.41;100487.50;10542595;28;20071;-69
2022/11/13 12:12:13;;;;;;;6.00;1.35;;;;;;;14.12;52.03;100615.16;10542280;28;20074;-70
2022/11/13 12:17:35;;;;;;;7.97;1.70;;;;;;;13.76;53.05;100595.50;10520491;28;20480;-72
2022/11/13 12:23:12;;;;;;;5.40;1.13;;;;;;;12.77;54.03;100472.81;10512482;28;20045;-69
2022/11/13 12:28:17;;;;;;;6.20;1.70;;;;;;;13.08;54.35;100557.25;10512493;28;20036;-72
2022/11/13 12:33:36;;;;;;;4.03;1.30;;;;;;;13.16;54.35;100575.81;10513011;28;20488;-70
2022/11/13 12:39:01;;;;;;;5.40;1.30;;;;;;;13.19;54.69;100583.47;10516034;28;20059;-70
2022/11/13 12:44:16;;;;;;;5.15;1.00;;;;;;;13.18;54.33;100587.16;10518840;28;20037;-70
2022/11/13 12:49:26;;;;;;;5.18;1.40;;;;;;;13.18;54.07;100587.97;10513554;28;20135;-71
2022/11/13 12:54:29;;;;;;;7.45;1.55;;;;;;;12.99;54.41;100561.81;10506169;28;20039;-70
2022/11/13 12:59:36;;;;;;;4.77;1.30;;;;;;;12.65;53.98;100515.03;10512370;28;20511;-71
2022/11/13 13:04:58;;;;;;;4.13;1.20;;;;;;;12.96;54.54;100578.97;10506063;28;20055;-71
2022/11/13 13:10:27;;;;;;;5.40;1.40;;;;;;;12.40;55.73;100493.06;10510977;28;20039;-68
2022/11/13 13:15:40;;;;;;;2.78;1.35;;;;;;;12.83;55.83;100568.06;10512143;28;20062;-70
2022/11/13 13:20:57;;;;;;;5.53;1.60;;;;;;;12.63;56.14;100553.56;10513637;28;20435;-70
2022/11/13 13:26:14;;;;;;;4.82;1.55;;;;;;;12.63;56.74;100573.03;10513551;28;20538;-71
2022/11/13 13:31:17;;;;;;;3.20;1.73;;;;;;;12.54;57.22;100579.44;10514357;28;20031;-70
2022/11/13 13:36:23;;;;;;;5.20;1.97;;;;;;;12.45;57.79;100565.31;10529664;28;20510;-70
2022/11/13 13:41:59;;;;;;;3.33;1.90;;;;;;;12.32;58.03;100559.69;10508877;28;20083;-70
2022/11/13 13:47:05;;;;;;;3.25;1.83;;;;;;;12.15;58.43;100558.97;10508268;28;20044;-68
2022/11/13 13:52:13;;;;;;;3.45;1.65;;;;;;;12.07;58.25;100554.50;10509133;27;20087;-70
2022/11/13 13:57:16;;;;;;;3.20;1.50;;;;;;;11.95;59.27;100547.06;10526011;28;20041;-71
2022/11/13 14:02:19;;;;;;;4.00;1.60;;;;;;;11.40;59.83;100482.16;10495858;28;20045;-68
2022/11/13 14:07:34;;;;;;;3.33;1.92;;;;;;;11.82;59.86;100555.56;10496301;28;20177;-69
2022/11/13 14:12:39;;;;;;;5.05;2.05;;;;;;;11.68;59.99;100533.13;10496236;28;20048;-70
2022/11/13 14:17:40;;;;;;;3.97;2.05;;;;;;;11.66;60.60;100535.94;10510798;28;20127;-70
2022/11/13 14:22:43;;;;;;;4.60;1.75;;;;;;;11.32;60.61;100496.28;10511904;28;20043;-70
2022/11/13 14:27:44;;;;;;;6.82;1.95;;;;;;;11.67;61.00;100555.44;10513075;28;20048;-71
2022/11/13 14:32:44;;;;;;;6.32;2.00;;;;;;;11.06;60.99;100463.75;10511998;28;20410;-70
2022/11/13 14:37:47;;;;;;;4.18;2.35;;;;;;;11.13;61.63;100480.72;10502895;28;20041;-69
2022/11/13 14:42:58;;;;;;;3.38;2.17;;;;;;;11.63;61.79;100556.75;10507366;28;20056;-69
2022/11/13 14:48:01;;;;;;;10.00;2.40;;;;;;;11.55;62.49;100568.25;10502383;28;20561;-69
2022/11/13 14:53:07;;;;;;;3.63;2.30;;;;;;;11.49;62.66;100566.28;10520321;28;20071;-70
2022/11/13 14:58:26;;;;;;;6.53;2.88;;;;;;;11.52;63.48;100570.44;10514112;28;20072;-70
2022/11/13 15:03:27;;;;;;;4.43;2.78;;;;;;;11.28;63.54;100556.16;10511523;28;20047;-68
2022/11/13 15:08:28;;;;;;;6.15;3.40;;;;;;;10.88;63.63;100485.19;10511310;28;20538;-71
2022/11/13 15:13:29;;;;;;;5.35;2.95;;;;;;;11.33;64.55;100569.75;10512999;28;20072;-70
2022/11/13 15:18:30;;;;;;;8.20;3.50;;;;;;;11.50;64.69;100599.03;10510061;28;20466;-67
2022/11/13 15:23:33;;;;;;;10.60;3.35;;;;;;;11.22;65.43;100551.50;10516165;28;20499;-68
2022/11/13 15:28:34;;;;;;;10.85;3.60;;;;;;;11.19;66.18;100555.31;10511635;28;20492;-70
2022/11/13 15:33:35;;;;;;;5.95;3.40;;;;;;;11.27;66.64;100581.06;10502168;28;20041;-70
2022/11/13 15:38:36;;;;;;;9.75;3.63;;;;;;;11.30;67.09;100594.03;10500377;28;20094;-69
2022/11/13 15:43:37;;;;;;;7.18;3.92;;;;;;;11.34;67.82;100608.69;10517947;28;20566;-68
2022/11/13 15:48:38;;;;;;;7.72;4.03;;;;;;;10.90;68.21;100553.16;10507063;28;20404;-69
2022/11/13 15:53:38;;;;;;;10.00;4.35;;;;;;;11.31;68.49;100630.28;10514474;28;20040;-70
2022/11/13 15:58:39;;;;;;;7.50;4.90;;;;;;;11.27;69.34;100622.78;10511296;28;20048;-68
2022/11/13 16:03:40;;;;;;;11.48;4.90;;;;;;;11.23;69.50;100627.63;10502281;28;20574;-71
2022/11/13 16:08:41;;;;;;;12.35;5.55;;;;;;;11.24;69.65;100645.22;10582740;28;20384;-69
2022/11/13 16:13:42;;;;;;;13.93;5.57;;;;;;;11.08;70.28;100647.88;10555638;28;20400;-71
2022/11/13 16:18:43;;;;;;;10.40;5.15;;;;;;;10.68;70.45;100639.66;10528634;28;20040;-71
2022/11/13 16:23:44;;;;;;;12.68;5.90;;;;;;;10.33;71.79;100619.44;10535939;28;20404;-71
2022/11/13 16:28:46;;;;;;;14.45;6.97;;;;;;;10.36;72.25;100666.91;10517624;28;20044;-71
2022/11/13 16:33:47;;;;;;;8.98;6.35;;;;;;;9.90;73.35;100634.44;10499536;28;20048;-70
2022/11/13 16:38:48;;;;;;;19.30;8.00;;;;;;;9.57;74.40;100590.91;10499596;28;20052;-71
2022/11/13 16:43:50;;;;;;;14.85;9.00;;;;;;;9.93;75.30;100673.94;10497638;28;20051;-72
2022/11/13 16:48:52;;;;;;;15.10;9.40;;;;;;;9.63;75.91;100643.34;10498370;28;20055;-70
2022/11/13 16:53:52;;;;;;;13.70;8.25;;;;;;;9.59;76.45;100645.47;10497563;28;20078;-70
2022/11/13 16:58:57;;;;;;;14.75;9.32;;;;;;;9.04;78.31;100571.47;10498648;28;20032;-70
2022/11/13 17:03:58;;;;;;;15.25;9.70;;;;;;;9.59;77.83;100673.84;10499090;28;20393;-70
2022/11/13 17:09:00;;;;;;;13.35;8.82;;;;;;;9.54;78.56;100666.34;10501709;28;20076;-70
2022/11/13 17:14:02;;;;;;;14.90;8.18;;;;;;;9.50;78.54;100670.28;10516107;28;20046;-70
2022/11/13 17:19:03;;;;;;;14.13;8.32;;;;;;;9.37;78.03;100664.53;10515218;28;20128;-69
2022/11/13 17:24:04;;;;;;;11.00;7.30;;;;;;;9.43;77.76;100674.53;10517159;28;20464;-70
2022/11/13 17:29:05;;;;;;;12.50;7.28;;;;;;;9.43;77.60;100684.31;10514458;28;20047;-71
2022/11/13 17:34:06;;;;;;;12.77;8.05;;;;;;;9.50;77.41;100696.81;10515335;28;20072;-70
2022/11/13 17:39:07;;;;;;;10.48;7.05;;;;;;;9.45;77.22;100691.09;10515546;28;20083;-69
2022/11/13 17:44:08;;;;;;;14.60;7.80;;;;;;;9.48;77.50;100706.75;10515994;28;20101;-68
2022/11/13 17:49:09;;;;;;;13.02;7.15;;;;;;;9.14;77.51;100643.78;10514401;28;20040;-71
2022/11/13 17:54:10;;;;;;;11.73;7.40;;;;;;;9.49;77.28;100699.63;10514074;28;20126;-71
2022/11/13 17:59:11;;;;;;;13.73;7.15;;;;;;;9.45;77.25;100680.50;10513770;28;20040;-70
2022/11/13 18:04:11;;;;;;;12.00;7.10;;;;;;;9.52;77.43;100691.34;10516087;28;20051;-69
2022/11/13 18:09:12;;;;;;;18.40;7.90;;;;;;;9.05;77.44;100620.84;10514527;28;20392;-70
2022/11/13 18:14:13;;;;;;;13.35;7.85;;;;;;;9.53;77.29;100723.00;10516054;28;20489;-70
2022/11/13 18:19:14;;;;;;;13.60;7.95;;;;;;;9.41;77.50;100694.22;10515666;28;20161;-70
2022/11/13 18:24:17;;;;;;;12.85;8.23;;;;;;;9.13;77.61;100655.38;10508787;28;20041;-70
2022/11/13 18:29:18;;;;;;;16.85;7.93;;;;;;;9.43;77.74;100701.06;10521134;28;20093;-70
2022/11/13 18:34:19;;;;;;;13.65;8.50;;;;;;;9.60;78.00;100718.78;10514443;28;20032;-71
2022/11/13 18:39:20;;;;;;;12.00;7.55;;;;;;;9.51;78.01;100714.41;10513608;28;20420;-70
2022/11/13 18:44:21;;;;;;;17.83;8.82;;;;;;;9.63;78.16;100708.84;10514719;28;20138;-70
2022/11/13 18:49:22;;;;;;;14.40;8.90;;;;;;;9.46;78.24;100665.44;10514065;28;20105;-69
2022/11/13 18:54:22;;;;;;;11.60;8.18;;;;;;;9.08;78.72;100583.44;10507190;28;20396;-70
2022/11/13 18:59:23;;;;;;;13.30;8.80;;;;;;;9.00;78.97;100562.16;10508153;28;20074;-71
2022/11/13 19:04:24;;;;;;;12.73;9.10;;;;;;;9.66;79.29;100658.13;10507034;28;20043;-69
2022/11/13 19:09:25;;;;;;;14.70;8.23;;;;;;;9.75;79.58;100670.47;10510690;28;20045;-69
2022/11/13 19:14:25;;;;;;;14.00;9.05;;;;;;;9.87;79.85;100674.56;10519585;28;20032;-69
2022/11/13 19:19:26;;;;;;;14.55;9.05;;;;;;;10.01;80.00;100668.66;10522260;28;20036;-68
2022/11/13 19:24:27;;;;;;;14.98;9.90;;;;;;;10.17;80.48;100680.38;10520415;28;20049;-70
2022/11/13 19:29:28;;;;;;;15.68;9.95;;;;;;;10.12;80.61;100649.00;10518212;28;20102;-72
2022/11/13 19:34:28;;;;;;;13.57;9.30;;;;;;;10.38;80.60;100664.94;10516288;28;20047;-69
2022/11/13 19:39:29;;;;;;;15.50;9.88;;;;;;;10.48;80.55;100673.59;10517165;28;20080;-71
2022/11/13 19:44:30;;;;;;;18.25;10.00;;;;;;;10.02;80.66;100579.25;10508104;28;20044;-69
2022/11/13 19:49:33;;;;;;;17.08;10.23;;;;;;;10.33;80.77;100622.06;10518315;28;20052;-70
2022/11/13 19:54:34;;;;;;;17.83;10.73;;;;;;;10.13;81.07;100591.41;10524114;28;20036;-69
2022/11/13 19:59:35;;;;;;;12.68;9.48;;;;;;;10.09;81.26;100600.69;10501206;28;20131;-69
2022/11/13 20:04:35;;;;;;;20.13;11.13;;;;;;;10.09;81.88;100606.00;10500923;28;20143;-70
2022/11/13 20:09:37;;;;;;;16.13;11.32;;;;;;;10.53;81.85;100699.69;10500687;28;20458;-70
2022/11/13 20:14:37;;;;;;;16.05;10.60;;;;;;;10.10;82.17;100618.28;10499840;28;20046;-70
2022/11/13 20:19:38;;;;;;;19.45;11.82;;;;;;;9.90;82.24;100578.72;10498727;28;20062;-69
2022/11/13 20:24:39;;;;;;;17.85;12.23;;;;;;;10.02;82.48;100601.34;10510312;28;20073;-69
2022/11/13 20:29:40;;;;;;;15.98;11.80;;;;;;;10.54;82.87;100682.75;10499763;28;20036;-70
2022/11/13 20:34:40;;;;;;;18.67;11.18;;;;;;;10.41;83.06;100669.06;10499894;28;20097;-71
2022/11/13 20:39:41;;;;;;;21.20;12.60;;;;;;;10.32;83.51;100665.56;10499691;28;20101;-71
2022/11/13 20:44:42;;;;;;;17.02;12.50;;;;;;;10.40;83.74;100676.22;10499358;28;20041;-70
2022/11/13 20:49:43;;;;;;;17.50;11.40;;;;;;;10.41;83.54;100679.69;10498674;28;20503;-70
2022/11/13 20:54:43;;;;;;;15.82;10.95;;;;;;;10.36;84.05;100682.00;10502152;28;20040;-71
2022/11/13 20:59:44;;;;;;;16.10;10.32;;;;;;;10.01;84.29;100639.47;10504565;28;20040;-71
2022/11/13 21:04:45;;;;;;;14.30;10.45;;;;;;;10.29;84.60;100681.81;10497493;28;20035;-70
2022/11/13 21:09:46;;;;;;;15.43;10.25;;;;;;;9.12;84.64;100489.41;10497804;28;20473;-70
2022/11/13 21:14:50;;;;;;;14.25;10.13;;;;;;;10.07;84.80;100654.75;10497683;28;20127;-71
2022/11/13 21:19:50;;;;;;;16.65;10.73;;;;;;;10.30;84.84;100667.53;10498683;28;20040;-71
2022/11/13 21:24:51;;;;;;;15.82;10.85;;;;;;;10.33;84.89;100661.09;10497522;28;20405;-70
2022/11/13 21:29:52;;;;;;;16.85;10.90;;;;;;;10.32;84.92;100670.88;10497621;28;20048;-71
2022/11/13 21:34:57;;;;;;;14.40;10.80;;;;;;;10.33;84.90;100656.59;10496566;28;20042;-71
2022/11/13 21:39:58;;;;;;;16.80;10.52;;;;;;;9.84;85.35;100571.34;10508142;28;20067;-72
2022/11/13 21:44:59;;;;;;;16.92;10.77;;;;;;;9.95;85.13;100594.97;10496743;28;20032;-72
2022/11/13 21:50:00;;;;;;;15.43;10.18;;;;;;;9.71;85.32;100547.09;10496348;28;20068;-71
2022/11/13 21:55:01;;;;;;;16.95;10.80;;;;;;;10.05;85.22;100616.94;10496825;28;20502;-70
2022/11/13 22:00:02;;;;;;;14.77;9.43;;;;;;;9.76;85.15;100560.72;10497217;28;20119;-71
2022/11/13 22:05:03;;;;;;;14.55;9.40;;;;;;;9.75;85.31;100551.94;10510650;28;20043;-71
2022/11/13 22:10:05;;;;;;;13.25;9.55;;;;;;;10.21;85.30;100626.81;10511966;28;20490;-71
2022/11/13 22:15:06;;;;;;;11.95;9.10;;;;;;;10.21;85.48;100620.66;10496198;28;20051;-71
2022/11/13 22:20:08;;;;;;;15.07;9.70;;;;;;;9.92;85.61;100571.41;10525162;28;20032;-71
2022/11/13 22:25:08;;;;;;;19.05;9.50;;;;;;;10.14;85.51;100601.91;10537858;28;20613;-71
2022/11/13 22:30:10;;;;;;;14.60;9.23;;;;;;;9.74;85.79;100544.13;10537971;28;20169;-71
2022/11/13 22:35:10;;;;;;;14.55;9.07;;;;;;;10.12;85.99;100605.69;10517436;28;20037;-70
2022/11/13 22:40:12;;;;;;;13.45;8.88;;;;;;;9.48;86.05;100510.50;10495561;28;20071;-71
2022/11/13 22:45:13;;;;;;;15.02;9.32;;;;;;;10.01;86.35;100602.31;10495828;28;20120;-70
2022/11/13 22:50:14;;;;;;;12.80;8.60;;;;;;;9.48;86.38;100517.59;10503800;28;20128;-71
2022/11/13 22:55:14;;;;;;;15.52;7.55;;;;;;;9.69;87.00;100563.19;10504025;28;20382;-71
2022/11/13 23:00:16;;;;;;;8.32;4.95;;;;;;;9.81;86.91;100601.72;10504104;28;20386;-70
2022/11/13 23:05:17;;;;;;;10.43;4.38;;;;;;;9.53;86.93;100566.53;10503518;28;20067;-71